Time;durP1;ratioP1;P1;durP2;ratioP2;P2;SDS_P1;SDS_P2;PMS_P1;PMS_P2;Temp;Humidity;BMP_temperature;BMP_pressure;BME280_temperature;BME280_humidity;BME280_pressure;Samples;Min_cycle;Max_cycle;Signal;HPM_P1;HPM_P2
2020/12/04 00:01:46;;;;;;;62.10;29.92;;;;;;;-1.63;66.11;98273.78;10424944;28;20045;-65
2020/12/04 00:06:47;;;;;;;59.95;30.30;;;;;;;-1.73;66.72;98265.28;10425660;28;20053;-66
2020/12/04 00:11:49;;;;;;;56.78;29.67;;;;;;;-1.62;66.15;98268.59;10426701;28;20126;-65
2020/12/04 00:16:50;;;;;;;63.15;31.50;;;;;;;-1.73;66.45;98275.59;10426815;28;20135;-66
2020/12/04 00:21:51;;;;;;;58.53;31.05;;;;;;;-1.59;66.48;98268.59;10424844;28;20460;-65
2020/12/04 00:26:52;;;;;;;58.22;32.08;;;;;;;-1.72;66.57;98268.75;10426268;28;20057;-64
2020/12/04 00:31:55;;;;;;;57.05;30.20;;;;;;;-1.69;66.53;98272.09;10422981;28;20075;-64
2020/12/04 00:36:56;;;;;;;67.70;32.38;;;;;;;-1.63;66.55;98273.78;10424996;28;20045;-66
2020/12/04 00:41:59;;;;;;;60.63;31.02;;;;;;;-1.84;67.16;98270.56;10425198;28;20041;-66
2020/12/04 00:47:01;;;;;;;65.85;31.52;;;;;;;-1.62;66.79;98278.06;10424153;28;20097;-65
2020/12/04 00:52:04;;;;;;;57.05;32.35;;;;;;;-1.59;66.44;98265.16;10423714;28;20436;-66
2020/12/04 00:57:07;;;;;;;60.83;32.00;;;;;;;-1.85;67.11;98260.28;10424163;28;20219;-64
2020/12/04 01:02:16;;;;;;;58.72;32.35;;;;;;;-1.67;66.79;98270.38;10423128;28;20041;-65
2020/12/04 01:07:18;;;;;;;58.15;33.03;;;;;;;-1.60;66.52;98272.00;10424707;28;20051;-64
2020/12/04 01:12:19;;;;;;;61.25;31.88;;;;;;;-1.50;66.28;98261.63;10424101;28;20120;-64
2020/12/04 01:17:20;;;;;;;64.18;33.17;;;;;;;-1.52;66.60;98251.31;10421831;28;20087;-64
2020/12/04 01:22:21;;;;;;;63.00;32.25;;;;;;;-1.44;66.66;98241.75;10421088;28;20091;-65
2020/12/04 01:27:22;;;;;;;51.33;30.63;;;;;;;-1.43;66.90;98224.56;10423098;28;20060;-63
2020/12/04 01:32:23;;;;;;;51.08;29.42;;;;;;;-1.50;67.95;98226.41;10423405;28;20061;-63
2020/12/04 01:37:24;;;;;;;47.90;28.88;;;;;;;-1.38;67.95;98212.47;10422993;28;20445;-64
2020/12/04 01:42:26;;;;;;;37.75;25.27;;;;;;;-1.35;68.56;98200.41;10422197;28;20045;-64
2020/12/04 01:47:27;;;;;;;47.03;26.20;;;;;;;-1.35;68.73;98189.25;10420913;28;20049;-65
2020/12/04 01:52:28;;;;;;;39.28;24.75;;;;;;;-1.05;68.57;98186.25;10420184;28;20472;-66
2020/12/04 01:57:34;;;;;;;39.92;25.25;;;;;;;-1.01;68.68;98179.31;10421945;28;20062;-64
2020/12/04 02:02:36;;;;;;;38.15;24.48;;;;;;;-0.81;68.32;98160.94;10420578;28;20517;-65
2020/12/04 02:08:04;;;;;;;37.92;23.88;;;;;;;-0.83;68.76;98168.72;10420870;28;20080;-64
2020/12/04 02:13:06;;;;;;;45.13;26.20;;;;;;;-0.63;68.49;98168.38;10421394;28;20048;-65
2020/12/04 02:18:08;;;;;;;41.97;27.38;;;;;;;-0.56;68.58;98151.91;10420182;28;20041;-65
2020/12/04 02:23:12;;;;;;;44.58;25.95;;;;;;;-0.55;68.93;98138.13;10421560;28;20081;-66
2020/12/04 02:28:13;;;;;;;41.83;23.55;;;;;;;-0.48;68.86;98127.72;10422015;28;20499;-64
2020/12/04 02:33:14;;;;;;;43.00;25.60;;;;;;;-0.32;68.46;98126.53;10421282;28;20095;-65
2020/12/04 02:38:16;;;;;;;30.52;22.67;;;;;;;-0.24;68.18;98111.75;10420545;28;20053;-65
2020/12/04 02:43:17;;;;;;;35.33;22.58;;;;;;;-0.22;68.75;98091.06;10420775;28;20038;-65
2020/12/04 02:48:19;;;;;;;30.50;22.30;;;;;;;-0.20;68.57;98072.09;10429110;28;20053;-65
2020/12/04 02:53:20;;;;;;;27.80;20.48;;;;;;;-0.08;68.44;98077.00;10430618;28;20050;-65
2020/12/04 02:58:21;;;;;;;29.55;22.77;;;;;;;-0.12;68.77;98083.13;10428238;28;20038;-65
2020/12/04 03:03:22;;;;;;;34.10;21.85;;;;;;;-0.01;68.64;98067.38;10429451;28;20041;-64
2020/12/04 03:08:25;;;;;;;24.92;21.63;;;;;;;0.01;68.57;98050.13;10429417;28;20101;-65
2020/12/04 03:13:26;;;;;;;34.30;23.00;;;;;;;-0.06;68.94;98054.56;10427746;28;20487;-67
2020/12/04 03:18:27;;;;;;;31.60;22.27;;;;;;;0.04;68.84;98044.03;10427070;28;20046;-64
2020/12/04 03:23:28;;;;;;;24.02;20.23;;;;;;;-0.02;68.86;98042.44;10424856;28;20041;-65
2020/12/04 03:28:30;;;;;;;29.45;21.58;;;;;;;0.07;68.62;98050.00;10428177;28;20084;-64
2020/12/04 03:33:31;;;;;;;24.55;21.35;;;;;;;0.13;68.45;98052.44;10424166;28;20525;-64
2020/12/04 03:38:32;;;;;;;27.42;22.35;;;;;;;0.09;68.65;98047.38;10422178;28;20349;-64
2020/12/04 03:43:40;;;;;;;29.65;21.90;;;;;;;0.01;69.08;98044.97;10423214;28;20049;-64
2020/12/04 03:48:42;;;;;;;29.73;21.13;;;;;;;0.27;68.47;98053.88;10423651;28;20047;-65
2020/12/04 03:53:43;;;;;;;24.90;21.23;;;;;;;0.20;68.56;98035.09;10423162;28;20045;-65
2020/12/04 03:58:44;;;;;;;26.88;21.08;;;;;;;0.22;68.75;98030.72;10421243;28;20056;-64
2020/12/04 04:03:46;;;;;;;31.70;23.70;;;;;;;0.14;68.66;98037.81;10422689;28;20053;-64
2020/12/04 04:08:47;;;;;;;28.98;22.33;;;;;;;0.13;68.85;98025.75;10421503;28;20056;-64
2020/12/04 04:13:48;;;;;;;28.08;23.13;;;;;;;0.16;69.05;98028.28;10422612;28;20430;-65
2020/12/04 04:18:49;;;;;;;24.15;21.63;;;;;;;0.31;68.24;98033.13;10420950;28;20077;-63
2020/12/04 04:23:50;;;;;;;26.65;21.35;;;;;;;0.29;68.47;98032.28;10419759;28;20053;-65
2020/12/04 04:28:52;;;;;;;28.27;22.08;;;;;;;0.23;68.83;98029.84;10422458;28;20060;-64
2020/12/04 04:33:53;;;;;;;27.38;21.15;;;;;;;0.33;68.48;98018.41;10419631;28;20065;-64
2020/12/04 04:38:54;;;;;;;23.50;20.95;;;;;;;0.42;68.07;98012.19;10420411;28;20045;-64
2020/12/04 04:43:55;;;;;;;23.30;20.80;;;;;;;0.12;69.13;97998.22;10420639;28;20045;-65
2020/12/04 04:48:59;;;;;;;22.20;19.95;;;;;;;0.37;68.32;97994.19;10420629;28;20042;-64
2020/12/04 04:54:01;;;;;;;20.48;18.58;;;;;;;0.30;68.36;97986.63;10420654;28;20103;-65
2020/12/04 04:59:05;;;;;;;23.60;19.02;;;;;;;0.34;68.46;97973.59;10420741;28;20057;-65
2020/12/04 05:04:06;;;;;;;23.08;20.77;;;;;;;0.34;68.69;97970.16;10422436;28;20042;-62
2020/12/04 05:09:13;;;;;;;21.75;19.63;;;;;;;0.32;68.90;97977.13;10420743;28;20068;-65
2020/12/04 05:14:17;;;;;;;22.93;19.87;;;;;;;0.40;68.98;97962.25;10421723;28;20065;-63
2020/12/04 05:19:32;;;;;;;25.73;20.25;;;;;;;0.37;68.85;97965.78;10420826;28;20048;-65
2020/12/04 05:24:33;;;;;;;25.23;20.58;;;;;;;0.19;69.25;97951.56;10419811;28;20046;-65
2020/12/04 05:29:38;;;;;;;22.35;19.95;;;;;;;0.13;69.78;97951.69;10420763;28;20065;-63
2020/12/04 05:34:39;;;;;;;22.13;19.90;;;;;;;0.18;69.60;97943.84;10419715;28;20041;-66
2020/12/04 05:39:42;;;;;;;22.50;20.23;;;;;;;0.17;69.86;97967.97;10420060;28;20049;-64
2020/12/04 05:44:54;;;;;;;21.73;19.65;;;;;;;0.37;69.45;97963.19;10418730;28;20415;-65
2020/12/04 05:49:56;;;;;;;22.67;20.40;;;;;;;0.42;69.19;97968.25;10419307;28;20407;-65
2020/12/04 05:54:58;;;;;;;22.05;19.83;;;;;;;0.47;68.67;97971.56;10419665;28;20356;-67
2020/12/04 05:59:59;;;;;;;23.08;19.08;;;;;;;0.46;68.63;97968.13;10421131;28;20137;-66
2020/12/04 06:05:01;;;;;;;20.75;18.75;;;;;;;0.47;68.79;97949.16;10420627;28;20037;-66
2020/12/04 06:10:03;;;;;;;20.00;17.98;;;;;;;0.46;68.94;97947.44;10419754;28;20041;-67
2020/12/04 06:15:30;;;;;;;19.85;17.85;;;;;;;0.60;68.72;97962.63;10420346;28;20033;-67
2020/12/04 06:20:45;;;;;;;20.35;18.02;;;;;;;0.56;68.49;97957.56;10423741;28;20071;-66
2020/12/04 06:25:53;;;;;;;20.23;18.50;;;;;;;0.69;68.10;97964.13;10443740;28;20045;-66
2020/12/04 06:31:02;;;;;;;19.08;17.23;;;;;;;0.69;68.22;97979.66;10427653;28;20091;-67
2020/12/04 06:36:05;;;;;;;19.27;17.48;;;;;;;0.76;68.13;97986.38;10427243;28;20409;-66
2020/12/04 06:41:25;;;;;;;18.73;17.05;;;;;;;0.78;67.97;97987.16;10428906;28;20118;-66
2020/12/04 06:46:40;;;;;;;18.90;17.08;;;;;;;0.55;68.68;97986.91;10429309;28;20088;-67
2020/12/04 06:51:55;;;;;;;18.38;16.67;;;;;;;0.65;68.52;97993.53;10424770;28;20056;-65
2020/12/04 06:56:57;;;;;;;20.23;17.85;;;;;;;0.74;68.47;97990.72;10426899;28;20124;-65
2020/12/04 07:02:04;;;;;;;19.42;17.70;;;;;;;0.87;68.54;97984.34;10426480;28;20052;-65
2020/12/04 07:07:26;;;;;;;19.80;18.08;;;;;;;0.97;68.20;97982.38;10424428;28;20056;-65
2020/12/04 07:12:30;;;;;;;18.83;17.13;;;;;;;1.00;68.04;97998.66;10427708;28;20464;-66
2020/12/04 07:17:31;;;;;;;18.95;17.25;;;;;;;0.91;68.42;98016.16;10426799;28;20041;-61
2020/12/04 07:22:32;;;;;;;18.70;17.10;;;;;;;1.08;68.11;98003.66;10425921;28;20510;-65
2020/12/04 07:27:33;;;;;;;16.75;15.30;;;;;;;1.07;67.93;98008.88;10425346;28;20049;-66
2020/12/04 07:32:35;;;;;;;19.30;17.50;;;;;;;1.17;67.54;98028.44;10425367;28;20046;-65
2020/12/04 07:37:36;;;;;;;17.67;16.08;;;;;;;1.33;67.49;98032.31;10425689;28;20049;-65
2020/12/04 07:42:37;;;;;;;19.10;17.50;;;;;;;1.41;67.25;98029.50;10424428;28;20112;-65
2020/12/04 07:47:42;;;;;;;17.88;16.38;;;;;;;1.44;67.17;98024.25;10425320;28;20041;-65
2020/12/04 07:52:52;;;;;;;17.60;15.98;;;;;;;1.47;66.91;98017.25;10424468;28;20132;-66
2020/12/04 07:58:10;;;;;;;18.33;16.67;;;;;;;1.72;66.21;98021.75;10423149;28;20053;-65
2020/12/04 08:03:13;;;;;;;;;;;;;;;1.74;66.14;98038.94;10440273;28;20054;-66
2020/12/04 08:08:20;;;;;;;16.55;15.25;;;;;;;1.97;65.80;98027.91;10424347;28;20339;-64
2020/12/04 08:13:23;;;;;;;19.05;17.20;;;;;;;1.90;65.66;98013.44;10421599;28;20045;-65
2020/12/04 08:18:24;;;;;;;17.90;16.50;;;;;;;2.01;65.38;98007.94;10423081;28;20060;-66
2020/12/04 08:23:25;;;;;;;17.98;16.58;;;;;;;1.84;66.08;98003.25;10425646;28;20053;-66
2020/12/04 08:28:26;;;;;;;18.60;17.10;;;;;;;2.06;65.33;97994.84;10425370;28;20049;-65
2020/12/04 08:33:27;;;;;;;16.95;15.65;;;;;;;2.05;65.54;97995.75;10423804;28;20056;-65
2020/12/04 08:38:28;;;;;;;17.50;16.00;;;;;;;2.03;65.66;97988.00;10424843;28;20041;-64
2020/12/04 08:43:30;;;;;;;17.48;16.05;;;;;;;2.09;65.59;97989.59;10425886;28;20046;-66
2020/12/04 08:48:39;;;;;;;16.23;14.93;;;;;;;2.24;65.02;97987.34;10425899;28;20037;-67
2020/12/04 08:53:41;;;;;;;16.58;15.27;;;;;;;2.31;64.88;97982.84;10425656;28;20053;-65
2020/12/04 08:58:43;;;;;;;15.27;14.05;;;;;;;2.52;64.40;97987.34;10423401;28;20124;-65
2020/12/04 09:03:44;;;;;;;13.45;12.35;;;;;;;2.35;64.85;97987.03;10424652;28;20460;-66
2020/12/04 09:08:45;;;;;;;14.50;13.40;;;;;;;2.35;65.18;98004.34;10424391;28;20049;-65
2020/12/04 09:13:46;;;;;;;15.63;14.38;;;;;;;2.47;64.88;97998.75;10425036;28;20076;-66
2020/12/04 09:18:47;;;;;;;14.77;13.35;;;;;;;2.52;64.50;98000.31;10423628;28;20052;-66
2020/12/04 09:23:49;;;;;;;14.90;13.70;;;;;;;2.61;64.32;97996.59;10424157;28;20037;-66
2020/12/04 09:28:50;;;;;;;14.27;13.07;;;;;;;2.66;64.71;97993.84;10422523;28;20049;-66
2020/12/04 09:33:51;;;;;;;14.90;13.70;;;;;;;2.74;64.21;97999.59;10422394;28;20052;-66
2020/12/04 09:38:52;;;;;;;14.65;13.45;;;;;;;2.79;63.97;98002.94;10418751;28;20045;-66
2020/12/04 09:43:53;;;;;;;16.02;14.60;;;;;;;2.78;64.34;97993.41;10419735;28;20423;-65
2020/12/04 09:48:54;;;;;;;14.40;13.30;;;;;;;2.90;64.10;97993.03;10420892;28;20468;-64
2020/12/04 09:53:56;;;;;;;15.23;13.93;;;;;;;2.85;64.19;97989.72;10422551;28;20132;-66
2020/12/04 09:58:57;;;;;;;15.40;14.10;;;;;;;2.98;63.90;97984.97;10420430;28;20064;-65
2020/12/04 10:03:58;;;;;;;15.43;14.13;;;;;;;3.02;64.08;97987.44;10418688;28;20076;-66
2020/12/04 10:08:59;;;;;;;14.00;12.90;;;;;;;3.13;63.47;97993.97;10419554;28;20467;-66
2020/12/04 10:14:00;;;;;;;18.85;15.50;;;;;;;3.13;63.82;97992.22;10421045;28;20135;-64
2020/12/04 10:19:02;;;;;;;15.57;14.23;;;;;;;3.38;63.27;97988.78;10419140;28;20041;-66
2020/12/04 10:24:04;;;;;;;14.90;13.57;;;;;;;3.53;62.81;97983.88;10417285;28;20507;-66
2020/12/04 10:29:10;;;;;;;;;;;;;;;3.68;62.19;97981.66;10418679;28;20081;-65
2020/12/04 10:34:13;;;;;;;14.48;13.27;;;;;;;3.84;61.57;97982.75;10417735;28;19921;-65
2020/12/04 10:39:14;;;;;;;13.48;12.27;;;;;;;3.85;61.64;97960.22;10420929;28;20482;-65
2020/12/04 10:44:15;;;;;;;14.65;13.40;;;;;;;3.71;61.88;97964.16;10417723;28;20144;-65
2020/12/04 10:49:16;;;;;;;13.32;12.25;;;;;;;3.72;61.59;97968.50;10419363;28;20049;-65
2020/12/04 10:54:18;;;;;;;14.05;12.95;;;;;;;3.69;61.76;97967.75;10417365;28;20049;-64
2020/12/04 10:59:19;;;;;;;14.45;13.20;;;;;;;3.95;60.79;97954.63;10418482;28;20056;-66
2020/12/04 11:09:40;;;;;;;12.23;11.23;;;;;;;6.46;54.53;97938.53;10426733;28;20041;-64
2020/12/04 11:14:43;;;;;;;11.15;10.18;;;;;;;6.60;53.43;97960.50;10425747;28;20041;-65
2020/12/04 11:19:44;;;;;;;11.90;10.90;;;;;;;4.79;57.35;97953.84;10425563;28;20045;-65
2020/12/04 11:24:45;;;;;;;11.75;10.75;;;;;;;5.67;55.41;97955.28;10421510;28;20511;-64
2020/12/04 11:29:46;;;;;;;11.45;10.48;;;;;;;5.62;55.83;97944.19;10419885;28;20460;-65
2020/12/04 11:34:51;;;;;;;11.35;10.45;;;;;;;6.11;55.09;97942.84;10421142;28;20125;-66
2020/12/04 11:39:52;;;;;;;12.25;11.25;;;;;;;6.19;54.22;97945.06;10421735;28;20041;-65
2020/12/04 11:44:54;;;;;;;12.55;11.50;;;;;;;5.50;56.08;97956.03;10427983;28;20144;-64
2020/12/04 11:49:55;;;;;;;13.57;12.40;;;;;;;4.41;58.82;97968.41;10425273;28;20034;-64
2020/12/04 11:54:57;;;;;;;13.40;12.38;;;;;;;4.14;59.84;97967.75;10426488;28;20049;-65
2020/12/04 11:59:59;;;;;;;14.07;12.88;;;;;;;3.90;59.91;97969.56;10424425;28;20049;-66
2020/12/04 12:05:01;;;;;;;14.10;12.90;;;;;;;3.85;60.83;97968.00;10424161;28;20574;-65
2020/12/04 12:10:02;;;;;;;13.75;12.35;;;;;;;4.59;59.19;97963.38;10423550;28;20056;-65
2020/12/04 12:15:04;;;;;;;19.08;13.57;;;;;;;5.37;56.96;97949.66;10422451;28;20045;-64
2020/12/04 12:20:06;;;;;;;13.80;12.50;;;;;;;4.80;57.67;97947.72;10422444;28;20095;-66
2020/12/04 12:25:10;;;;;;;11.85;10.85;;;;;;;4.40;58.82;97950.28;10432422;28;20136;-65
2020/12/04 12:30:11;;;;;;;12.40;11.40;;;;;;;4.26;58.98;97966.44;10427951;28;20049;-64
2020/12/04 12:35:12;;;;;;;12.75;11.65;;;;;;;4.00;59.32;97965.69;10423067;28;20041;-66
2020/12/04 12:40:14;;;;;;;13.13;11.93;;;;;;;4.01;59.76;97953.53;10422345;28;20514;-65
2020/12/04 12:45:16;;;;;;;12.60;11.50;;;;;;;4.15;59.20;97946.03;10421500;28;20053;-64
2020/12/04 12:50:17;;;;;;;13.02;11.93;;;;;;;4.12;59.04;97946.19;10423409;28;20049;-63
2020/12/04 12:55:19;;;;;;;12.43;11.35;;;;;;;3.99;59.53;97973.56;10421492;28;20133;-65
2020/12/04 13:00:20;;;;;;;12.63;11.55;;;;;;;3.90;59.73;97984.31;10423413;28;20495;-63
2020/12/04 13:05:32;;;;;;;13.77;12.57;;;;;;;3.91;59.80;97991.19;10423000;28;20530;-65
2020/12/04 13:10:38;;;;;;;13.05;11.95;;;;;;;3.66;60.58;97973.06;10424166;28;20045;-65
2020/12/04 13:15:39;;;;;;;12.05;11.05;;;;;;;3.81;60.12;97954.31;10419845;28;20518;-66
2020/12/04 13:20:40;;;;;;;13.45;12.25;;;;;;;3.80;60.34;97957.78;10421147;28;20052;-66
2020/12/04 13:25:43;;;;;;;12.98;11.88;;;;;;;3.58;60.63;97970.72;10420476;28;20049;-64
2020/12/04 13:30:44;;;;;;;13.50;12.40;;;;;;;3.45;61.30;97974.66;10418871;28;20045;-65
2020/12/04 13:35:45;;;;;;;13.95;12.75;;;;;;;3.75;60.83;97957.13;10419882;28;20053;-65
2020/12/04 13:40:46;;;;;;;14.52;13.10;;;;;;;3.72;60.52;97939.91;10423724;28;20047;-67
2020/12/04 13:45:51;;;;;;;12.98;11.98;;;;;;;3.61;60.77;97930.81;10420502;28;20488;-64
2020/12/04 13:50:54;;;;;;;14.27;12.98;;;;;;;3.54;61.03;97951.81;10420255;28;20041;-64
2020/12/04 13:55:55;;;;;;;14.23;12.82;;;;;;;3.40;61.28;97956.66;10417893;28;20037;-66
2020/12/04 14:00:57;;;;;;;14.30;13.10;;;;;;;3.35;61.59;97960.31;10420471;28;20057;-65
2020/12/04 14:05:58;;;;;;;14.23;13.05;;;;;;;3.07;62.40;97963.06;10419081;28;20072;-63
2020/12/04 14:10:59;;;;;;;15.25;13.85;;;;;;;3.15;62.26;97977.47;10418302;28;20059;-64
2020/12/04 14:16:02;;;;;;;15.00;13.80;;;;;;;3.19;62.22;97973.03;10419388;28;20037;-64
2020/12/04 14:21:08;;;;;;;15.38;14.07;;;;;;;3.04;62.34;97996.00;10417051;28;20080;-65
2020/12/04 14:26:10;;;;;;;16.08;14.52;;;;;;;3.06;62.58;97989.91;10417728;28;20048;-63
2020/12/04 14:31:11;;;;;;;16.15;14.65;;;;;;;3.00;62.36;97986.59;10418663;28;20067;-63
2020/12/04 14:36:13;;;;;;;16.45;15.07;;;;;;;2.69;63.44;97972.97;10420701;28;20428;-66
2020/12/04 14:41:15;;;;;;;16.85;15.45;;;;;;;2.71;63.28;97976.38;10421777;28;20510;-63
2020/12/04 14:46:16;;;;;;;16.35;14.85;;;;;;;2.80;63.06;97978.66;10425064;28;20064;-67
2020/12/04 14:51:17;;;;;;;16.23;14.82;;;;;;;2.75;63.45;97978.81;10424977;28;20050;-68
2020/12/04 14:56:18;;;;;;;17.00;15.50;;;;;;;2.72;63.50;97991.88;10425318;28;20487;-68
2020/12/04 15:01:20;;;;;;;19.38;16.55;;;;;;;2.77;63.39;97997.75;10424523;28;20072;-69
2020/12/04 15:06:21;;;;;;;16.08;14.68;;;;;;;2.72;63.46;97983.25;10425740;28;20050;-68
2020/12/04 15:11:22;;;;;;;17.77;16.17;;;;;;;2.75;63.63;97976.22;10424629;28;20495;-67
2020/12/04 15:16:24;;;;;;;18.63;17.00;;;;;;;2.68;64.08;97960.91;10427583;28;20042;-64
2020/12/04 15:21:25;;;;;;;19.73;17.88;;;;;;;2.68;64.18;97961.75;10430959;28;20111;-64
2020/12/04 15:26:26;;;;;;;18.38;16.77;;;;;;;2.51;64.95;97970.06;10427194;28;20048;-64
2020/12/04 15:31:27;;;;;;;19.13;17.40;;;;;;;2.53;64.79;97957.94;10425576;28;20517;-63
2020/12/04 15:36:28;;;;;;;19.65;17.85;;;;;;;2.62;64.86;97949.00;10425825;28;20368;-64
2020/12/04 15:41:30;;;;;;;19.65;17.73;;;;;;;2.74;64.53;97943.38;10423252;28;20061;-64
2020/12/04 15:46:31;;;;;;;19.75;17.85;;;;;;;2.73;64.81;97943.44;10424064;28;20088;-65
2020/12/04 15:51:34;;;;;;;18.63;17.08;;;;;;;2.74;64.74;97948.56;10423865;28;20053;-65
2020/12/04 15:56:35;;;;;;;18.00;16.58;;;;;;;2.93;64.19;97960.94;10422200;28;20052;-64
2020/12/04 16:01:36;;;;;;;17.92;16.42;;;;;;;2.90;64.54;97967.06;10424684;28;20506;-65
2020/12/04 16:06:38;;;;;;;18.02;16.50;;;;;;;2.77;64.51;97961.44;10425127;28;20048;-64
2020/12/04 16:11:48;;;;;;;17.23;15.73;;;;;;;2.77;64.64;97978.75;10423171;28;20055;-65
2020/12/04 16:16:51;;;;;;;19.75;17.98;;;;;;;2.83;64.42;97975.09;10422211;28;20048;-64
2020/12/04 16:21:54;;;;;;;18.20;16.65;;;;;;;2.64;65.08;97973.13;10421201;28;20053;-63
2020/12/04 16:26:55;;;;;;;17.80;16.27;;;;;;;2.82;64.69;97956.09;10422437;28;20045;-63
2020/12/04 16:31:56;;;;;;;16.67;15.27;;;;;;;2.74;64.91;97955.50;10422024;28;20045;-64
2020/12/04 16:37:01;;;;;;;17.15;15.75;;;;;;;2.80;64.53;97968.28;10421991;28;20037;-64
2020/12/04 16:42:02;;;;;;;17.83;16.13;;;;;;;2.73;64.90;97992.72;10422489;28;20049;-64
2020/12/04 16:47:03;;;;;;;18.17;16.50;;;;;;;2.73;64.75;97979.75;10423966;28;20092;-64
2020/12/04 16:52:05;;;;;;;18.50;16.90;;;;;;;2.77;64.59;97974.41;10422099;28;20041;-64
2020/12/04 16:57:08;;;;;;;20.33;18.13;;;;;;;2.88;64.32;97968.00;10422544;28;20037;-65
2020/12/04 17:02:09;;;;;;;19.25;17.45;;;;;;;2.77;64.39;97989.13;10422029;28;20041;-64
2020/12/04 17:07:10;;;;;;;18.85;17.15;;;;;;;2.80;64.47;97986.44;10423018;28;20038;-64
2020/12/04 17:12:12;;;;;;;19.48;17.67;;;;;;;2.79;64.46;97976.97;10423747;28;20049;-67
2020/12/04 17:17:14;;;;;;;20.00;17.92;;;;;;;2.78;64.43;97980.44;10427004;28;20124;-65
2020/12/04 17:22:16;;;;;;;21.65;19.50;;;;;;;2.66;64.90;97991.25;10420282;28;20056;-69
2020/12/04 17:27:20;;;;;;;21.33;19.27;;;;;;;2.71;64.56;97991.94;10419845;28;20088;-65
2020/12/04 17:32:26;;;;;;;21.98;19.88;;;;;;;2.79;64.46;97992.53;10415957;28;20054;-68
2020/12/04 17:37:30;;;;;;;21.30;19.20;;;;;;;2.76;64.45;97988.28;10395950;28;20598;-67
2020/12/04 17:42:36;;;;;;;21.83;19.65;;;;;;;2.73;64.51;97987.53;10413779;28;20483;-64
2020/12/04 17:47:37;;;;;;;22.25;19.40;;;;;;;2.72;64.26;97989.28;10424544;28;20049;-65
2020/12/04 17:52:39;;;;;;;23.70;21.00;;;;;;;2.55;64.98;97977.78;10419291;28;20049;-69
2020/12/04 17:57:41;;;;;;;21.88;19.65;;;;;;;2.74;64.41;97984.03;10419924;28;20076;-70
2020/12/04 18:02:42;;;;;;;24.90;22.20;;;;;;;2.67;64.51;97972.19;10420790;28;20049;-70
2020/12/04 18:07:43;;;;;;;25.33;22.05;;;;;;;2.54;64.94;97974.34;10420955;28;20396;-70
2020/12/04 18:12:45;;;;;;;23.67;21.30;;;;;;;2.63;64.76;97979.22;10420914;28;20406;-70
2020/12/04 18:17:46;;;;;;;25.15;22.17;;;;;;;2.67;64.79;97975.63;10418799;28;20045;-70
2020/12/04 18:22:48;;;;;;;24.48;21.83;;;;;;;2.71;64.79;97971.19;10419566;28;20469;-66
2020/12/04 18:27:50;;;;;;;26.83;21.98;;;;;;;2.67;64.82;97969.59;10416404;28;20511;-69
2020/12/04 18:32:51;;;;;;;27.92;22.70;;;;;;;2.68;64.78;97945.34;10417191;28;20064;-68
2020/12/04 18:37:52;;;;;;;28.02;22.63;;;;;;;2.84;64.50;97969.88;10416681;28;20106;-68
2020/12/04 18:42:54;;;;;;;30.08;24.48;;;;;;;2.88;64.37;97974.06;10418089;28;20492;-68
2020/12/04 18:47:55;;;;;;;26.02;21.77;;;;;;;2.83;64.36;97965.56;10417568;28;20049;-69
2020/12/04 18:52:56;;;;;;;28.60;23.35;;;;;;;2.96;64.26;97961.66;10435212;28;20562;-69
2020/12/04 18:57:57;;;;;;;26.50;22.80;;;;;;;3.03;63.94;97970.09;10419274;28;20054;-68
2020/12/04 19:02:58;;;;;;;32.10;23.13;;;;;;;2.93;64.22;97966.97;10417666;28;20065;-69
2020/12/04 19:08:00;;;;;;;29.85;23.52;;;;;;;2.98;63.99;97982.38;10418493;28;20419;-68
2020/12/04 19:13:01;;;;;;;30.48;22.75;;;;;;;3.08;63.85;97986.34;10420734;28;20037;-68
2020/12/04 19:18:04;;;;;;;31.08;24.77;;;;;;;3.00;64.14;97997.00;10417600;28;20104;-70
2020/12/04 19:23:05;;;;;;;29.50;22.95;;;;;;;2.87;64.51;97969.75;10418522;28;20099;-68
2020/12/04 19:28:07;;;;;;;34.90;23.85;;;;;;;3.10;63.74;97979.38;10423557;28;20041;-69
2020/12/04 19:33:08;;;;;;;30.70;23.85;;;;;;;2.89;64.14;97980.94;10441103;28;20080;-69
2020/12/04 19:38:10;;;;;;;25.85;22.25;;;;;;;3.17;63.73;97975.66;10425745;28;20045;-69
2020/12/04 19:43:12;;;;;;;29.50;22.88;;;;;;;3.09;64.01;97980.25;10425181;28;20072;-69
2020/12/04 19:48:14;;;;;;;26.42;22.15;;;;;;;3.26;63.54;97974.47;10440722;28;20064;-68
2020/12/04 19:53:15;;;;;;;28.85;23.50;;;;;;;2.96;64.46;97968.59;10425367;28;20049;-70
2020/12/04 19:58:16;;;;;;;30.20;23.33;;;;;;;3.29;63.35;97983.03;10425149;28;20125;-68
2020/12/04 20:03:18;;;;;;;25.08;22.38;;;;;;;3.24;63.74;97977.16;10424749;28;20064;-68
2020/12/04 20:08:19;;;;;;;24.77;21.77;;;;;;;3.18;64.15;97986.88;10425031;28;20049;-69
2020/12/04 20:13:20;;;;;;;25.02;22.50;;;;;;;3.12;64.03;97976.72;10424203;28;20076;-70
2020/12/04 20:18:21;;;;;;;26.27;22.00;;;;;;;3.28;63.36;97973.53;10425681;28;20073;-69
2020/12/04 20:23:24;;;;;;;27.80;20.98;;;;;;;3.33;63.33;97950.00;10424184;28;20524;-68
2020/12/04 20:28:25;;;;;;;28.05;23.15;;;;;;;3.36;63.24;97980.19;10423890;28;20041;-68
2020/12/04 20:33:26;;;;;;;29.95;24.08;;;;;;;3.39;63.23;97975.75;10423539;28;20455;-69
2020/12/04 20:38:28;;;;;;;28.17;22.83;;;;;;;3.41;63.16;97960.97;10424117;28;20129;-68
2020/12/04 20:43:29;;;;;;;29.92;21.70;;;;;;;3.40;63.16;97961.84;10422556;28;20080;-69
2020/12/04 20:48:31;;;;;;;25.00;22.20;;;;;;;3.29;63.50;97948.41;10422748;28;20064;-69
2020/12/04 20:53:32;;;;;;;25.85;20.65;;;;;;;3.53;62.30;97957.91;10438166;28;20038;-68
2020/12/04 20:58:37;;;;;;;25.17;22.33;;;;;;;3.66;62.32;97973.91;10421499;28;20514;-69
2020/12/04 21:03:38;;;;;;;24.48;21.67;;;;;;;3.52;62.57;97970.97;10423417;28;20045;-68
2020/12/04 21:08:39;;;;;;;28.88;22.48;;;;;;;3.53;62.80;97993.44;10437476;28;20076;-68
2020/12/04 21:13:40;;;;;;;26.60;22.25;;;;;;;3.54;62.84;97974.34;10422575;28;20069;-69
2020/12/04 21:18:43;;;;;;;24.48;21.83;;;;;;;3.59;62.97;97984.59;10436709;28;20103;-69
2020/12/04 21:23:44;;;;;;;33.40;23.83;;;;;;;3.57;62.96;97982.03;10422831;28;20073;-66
2020/12/04 21:28:45;;;;;;;27.15;23.25;;;;;;;3.54;62.85;97972.63;10421013;28;20409;-67
2020/12/04 21:33:46;;;;;;;24.88;22.17;;;;;;;3.45;63.46;97967.75;10421812;28;20103;-68
2020/12/04 21:38:47;;;;;;;27.10;22.15;;;;;;;3.48;63.16;97965.03;10420840;28;20052;-69
2020/12/04 21:43:49;;;;;;;25.40;21.30;;;;;;;3.51;63.03;97967.53;10421686;28;20446;-69
2020/12/04 21:48:50;;;;;;;26.60;22.25;;;;;;;3.33;63.77;97972.53;10421710;28;20064;-68
2020/12/04 21:53:51;;;;;;;24.85;22.17;;;;;;;3.37;63.60;97984.50;10421751;28;20562;-68
2020/12/04 21:58:53;;;;;;;22.90;20.65;;;;;;;3.53;63.27;97977.84;10420330;28;20045;-68
2020/12/04 22:03:54;;;;;;;28.27;22.95;;;;;;;3.38;63.55;97979.25;10419877;28;20426;-68
2020/12/04 22:08:56;;;;;;;24.45;21.80;;;;;;;3.48;63.39;97979.75;10420186;28;20041;-69
2020/12/04 22:13:57;;;;;;;29.52;21.52;;;;;;;3.57;63.16;98004.56;10421598;28;20052;-69
2020/12/04 22:18:59;;;;;;;22.65;20.45;;;;;;;3.47;63.43;98002.28;10420969;28;20049;-68
2020/12/04 22:24:00;;;;;;;26.08;21.80;;;;;;;3.50;63.45;97993.56;10435901;28;20065;-68
2020/12/04 22:29:02;;;;;;;23.85;21.20;;;;;;;3.64;62.74;97995.66;10419890;28;20045;-68
2020/12/04 22:34:03;;;;;;;23.30;20.95;;;;;;;3.62;62.87;97984.44;10419463;28;20068;-68
2020/12/04 22:39:04;;;;;;;28.00;21.67;;;;;;;3.52;63.32;97982.19;10419651;28;20559;-67
2020/12/04 22:44:06;;;;;;;24.73;21.25;;;;;;;3.53;63.30;97988.22;10419582;28;20052;-69
2020/12/04 22:49:10;;;;;;;22.77;20.52;;;;;;;3.50;63.19;97994.41;10419916;28;20500;-70
2020/12/04 22:54:13;;;;;;;23.38;20.77;;;;;;;3.53;63.26;97977.84;10418702;28;20041;-69
2020/12/04 22:59:15;;;;;;;23.35;20.95;;;;;;;3.44;63.34;97963.44;10420024;28;20359;-69
2020/12/04 23:04:16;;;;;;;22.65;20.35;;;;;;;3.43;63.28;97961.75;10427964;28;20037;-68
2020/12/04 23:09:17;;;;;;;24.88;20.08;;;;;;;3.43;63.62;97943.56;10427442;28;20135;-68
2020/12/04 23:14:18;;;;;;;23.95;20.52;;;;;;;3.38;63.75;97944.66;10425992;28;20037;-68